Terminal Aerodrome Forecast
Issued by NWS

Home | Current Version | Previous Version | Text Only | Print | Product List | Glossary On
Versions: 1 2 3 4 5 6 7 8 9 10 11 12
000
FTUS42 TJSJ 230528
TAFKPK
TAF
TKPK 230528Z 2306/2406 VRB05KT P6SM FEW018 FEW040
     FM231300 11010KT P6SM SCT020
     FM232300 VRB05KT P6SM VCSH SCT020 BKN040
      AMD NOT SKED TIL 231100=

USA.gov is the U.S. government's official web portal to all federal, state and local government web resources and services.